Hovedside
METAR-TAF:

METAR-TAF

Lufthavner :

Évreux, Frankrike

breddegrad: 49-01N, lengdegrad: 001-13E, høyde over havet: 141 m

Gjeldene værobservasjon

Denne rapporten ble laget for 32 minutter siden, klokken 13:00 UTC
Vind 7 kt fra Sør-sørøst, skiftende mellom Øst og Sør
Temperatur 28°C
Luftfuktighet 40%
Trykk 1020 hPa
Sikt 10 km eller mer
ingen skyer under 1500 m og ingen bygeskyer

METAR: LFOE 181300Z AUTO 15007KT 100V190 CAVOK 28/13 Q1020 NOSIG

Tid: 15:32 (13:32 UTC)

Varsel

Denne rapporten ble laget for 5 timer og 32 minutter siden, klokken 08:00 UTC
Varsel gyldig fra 18. klokken 09 UTC til 19. klokken 09 UTC
Vind 6 kt fra Øst-sørøst
Sikt 10 km eller mer
ingen skyer under 1500 m og ingen bygeskyer

TAF: LFOE 180800Z 1809/1909 12006KT CAVOK

Værobservasjoner og værvarsel for over 4000 flyplasser (METAR- og TAF-rapporter).

Tilgjengelige stasjoner er representert av de røde og gule prikkene på kartet.

Hold musepekeren over prikken for å se navnet på stasjonen.

Klikk så for å se værobservasjoner og -varsler.

For å forandre kartet kan du klikke på den grønne knappen med svart kryss for å zoome inn, på den grønne knappen med strek for å zoome ut, eller på de grønne pilene for å se tilstøtende kart.


METAR-TAF: